sensor_id;sensor_type;location;lat;lon;timestamp;temperature;humidity
59015;DHT22;44799;53.382;14.666;2023-03-15T00:01:36;19.10;75.70
59015;DHT22;44799;53.382;14.666;2023-03-15T00:04:02;19.30;75.40
59015;DHT22;44799;53.382;14.666;2023-03-15T00:06:33;22.10;77.20
59015;DHT22;44799;53.382;14.666;2023-03-15T00:08:59;18.40;75.20
59015;DHT22;44799;53.382;14.666;2023-03-15T00:11:26;18.50;75.10
59015;DHT22;44799;53.382;14.666;2023-03-15T00:13:52;20.00;76.10
59015;DHT22;44799;53.382;14.666;2023-03-15T00:16:18;22.00;77.00
59015;DHT22;44799;53.382;14.666;2023-03-15T00:18:44;21.10;75.70
59015;DHT22;44799;53.382;14.666;2023-03-15T00:21:11;22.00;77.20
59015;DHT22;44799;53.382;14.666;2023-03-15T00:23:37;18.50;75.20
59015;DHT22;44799;53.382;14.666;2023-03-15T00:26:03;21.60;76.90
59015;DHT22;44799;53.382;14.666;2023-03-15T00:28:28;18.30;74.90
59015;DHT22;44799;53.382;14.666;2023-03-15T00:33:20;21.00;76.40
59015;DHT22;44799;53.382;14.666;2023-03-15T00:35:45;22.10;76.40
59015;DHT22;44799;53.382;14.666;2023-03-15T00:40:38;21.90;76.30
59015;DHT22;44799;53.382;14.666;2023-03-15T00:43:04;21.90;76.60
59015;DHT22;44799;53.382;14.666;2023-03-15T00:45:29;20.40;75.60
59015;DHT22;44799;53.382;14.666;2023-03-15T00:47:55;21.40;76.10
59015;DHT22;44799;53.382;14.666;2023-03-15T00:50:21;21.50;76.20
59015;DHT22;44799;53.382;14.666;2023-03-15T00:52:47;21.10;74.50
59015;DHT22;44799;53.382;14.666;2023-03-15T00:55:17;18.80;74.40
59015;DHT22;44799;53.382;14.666;2023-03-15T00:57:44;21.30;75.90
59015;DHT22;44799;53.382;14.666;2023-03-15T01:00:11;21.90;76.20
59015;DHT22;44799;53.382;14.666;2023-03-15T01:02:37;22.00;76.40
59015;DHT22;44799;53.382;14.666;2023-03-15T01:05:03;20.10;75.30
59015;DHT22;44799;53.382;14.666;2023-03-15T01:07:29;20.30;75.40
59015;DHT22;44799;53.382;14.666;2023-03-15T01:09:58;20.10;71.10
59015;DHT22;44799;53.382;14.666;2023-03-15T01:12:23;18.50;74.40
59015;DHT22;44799;53.382;14.666;2023-03-15T01:14:49;21.90;76.40
59015;DHT22;44799;53.382;14.666;2023-03-15T01:17:15;18.50;74.50
59015;DHT22;44799;53.382;14.666;2023-03-15T01:19:40;20.50;75.70
59015;DHT22;44799;53.382;14.666;2023-03-15T01:22:06;21.10;76.00
59015;DHT22;44799;53.382;14.666;2023-03-15T01:24:32;21.50;76.20
59015;DHT22;44799;53.382;14.666;2023-03-15T01:26:57;18.60;74.50
59015;DHT22;44799;53.382;14.666;2023-03-15T01:29:23;20.80;75.80
59015;DHT22;44799;53.382;14.666;2023-03-15T01:31:49;20.90;76.00
59015;DHT22;44799;53.382;14.666;2023-03-15T01:34:14;18.30;74.80
59015;DHT22;44799;53.382;14.666;2023-03-15T01:39:06;18.70;74.70
59015;DHT22;44799;53.382;14.666;2023-03-15T01:41:32;18.60;72.50
59015;DHT22;44799;53.382;14.666;2023-03-15T01:43:58;21.70;76.40
59015;DHT22;44799;53.382;14.666;2023-03-15T01:46:30;21.60;76.10
59015;DHT22;44799;53.382;14.666;2023-03-15T01:51:33;21.90;76.40
59015;DHT22;44799;53.382;14.666;2023-03-15T01:54:08;18.30;74.40
59015;DHT22;44799;53.382;14.666;2023-03-15T01:56:35;18.80;74.70
59015;DHT22;44799;53.382;14.666;2023-03-15T01:59:02;21.00;75.90
59015;DHT22;44799;53.382;14.666;2023-03-15T02:01:29;18.20;74.40
59015;DHT22;44799;53.382;14.666;2023-03-15T02:03:58;20.90;75.80
59015;DHT22;44799;53.382;14.666;2023-03-15T02:06:26;20.10;71.30
59015;DHT22;44799;53.382;14.666;2023-03-15T02:11:19;21.80;76.60
59015;DHT22;44799;53.382;14.666;2023-03-15T02:13:45;19.00;74.70
59015;DHT22;44799;53.382;14.666;2023-03-15T02:16:12;21.30;76.30
59015;DHT22;44799;53.382;14.666;2023-03-15T02:18:38;18.40;74.60
59015;DHT22;44799;53.382;14.666;2023-03-15T02:23:29;20.90;76.00
59015;DHT22;44799;53.382;14.666;2023-03-15T02:28:22;18.30;74.50
59015;DHT22;44799;53.382;14.666;2023-03-15T02:30:48;18.20;74.50
59015;DHT22;44799;53.382;14.666;2023-03-15T02:35:52;20.20;75.40
59015;DHT22;44799;53.382;14.666;2023-03-15T02:38:18;18.30;74.50
59015;DHT22;44799;53.382;14.666;2023-03-15T02:40:47;20.80;76.00
59015;DHT22;44799;53.382;14.666;2023-03-15T02:43:15;19.40;75.20
59015;DHT22;44799;53.382;14.666;2023-03-15T02:45:42;19.90;73.50
59015;DHT22;44799;53.382;14.666;2023-03-15T02:48:08;21.50;76.20
59015;DHT22;44799;53.382;14.666;2023-03-15T02:53:01;21.60;76.40
59015;DHT22;44799;53.382;14.666;2023-03-15T02:57:53;20.30;75.60
59015;DHT22;44799;53.382;14.666;2023-03-15T03:00:19;21.00;76.00
59015;DHT22;44799;53.382;14.666;2023-03-15T03:02:45;21.20;76.20
59015;DHT22;44799;53.382;14.666;2023-03-15T03:05:12;20.40;75.70
59015;DHT22;44799;53.382;14.666;2023-03-15T03:07:38;18.20;74.50
59015;DHT22;44799;53.382;14.666;2023-03-15T03:10:04;21.60;76.30
59015;DHT22;44799;53.382;14.666;2023-03-15T03:12:30;20.30;76.20
59015;DHT22;44799;53.382;14.666;2023-03-15T03:14:56;21.70;76.50
59015;DHT22;44799;53.382;14.666;2023-03-15T03:17:22;21.50;76.50
59015;DHT22;44799;53.382;14.666;2023-03-15T03:19:48;18.20;74.80
59015;DHT22;44799;53.382;14.666;2023-03-15T03:22:13;19.10;75.30
59015;DHT22;44799;53.382;14.666;2023-03-15T03:24:39;18.10;74.70
59015;DHT22;44799;53.382;14.666;2023-03-15T03:29:36;20.40;76.10
59015;DHT22;44799;53.382;14.666;2023-03-15T03:32:01;19.00;75.30
59015;DHT22;44799;53.382;14.666;2023-03-15T03:36:53;19.20;75.10
59015;DHT22;44799;53.382;14.666;2023-03-15T03:39:18;22.00;76.80
59015;DHT22;44799;53.382;14.666;2023-03-15T03:41:44;21.90;76.90
59015;DHT22;44799;53.382;14.666;2023-03-15T03:44:10;21.90;76.70
59015;DHT22;44799;53.382;14.666;2023-03-15T03:46:35;20.70;76.10
59015;DHT22;44799;53.382;14.666;2023-03-15T03:49:01;20.60;76.20
59015;DHT22;44799;53.382;14.666;2023-03-15T03:51:26;18.10;74.70
59015;DHT22;44799;53.382;14.666;2023-03-15T03:53:52;21.80;76.90
59015;DHT22;44799;53.382;14.666;2023-03-15T03:56:18;21.20;76.50
59015;DHT22;44799;53.382;14.666;2023-03-15T03:58:43;18.80;75.20
59015;DHT22;44799;53.382;14.666;2023-03-15T04:01:09;18.30;75.00
59015;DHT22;44799;53.382;14.666;2023-03-15T04:03:35;20.40;76.10
59015;DHT22;44799;53.382;14.666;2023-03-15T04:08:29;21.10;76.60
59015;DHT22;44799;53.382;14.666;2023-03-15T04:10:56;21.70;76.90
59015;DHT22;44799;53.382;14.666;2023-03-15T04:13:22;21.10;76.60
59015;DHT22;44799;53.382;14.666;2023-03-15T04:15:48;21.80;77.00
59015;DHT22;44799;53.382;14.666;2023-03-15T04:18:14;19.50;75.60
59015;DHT22;44799;53.382;14.666;2023-03-15T04:20:40;21.40;76.70
59015;DHT22;44799;53.382;14.666;2023-03-15T04:23:14;20.70;76.40
59015;DHT22;44799;53.382;14.666;2023-03-15T04:25:40;21.30;76.60
59015;DHT22;44799;53.382;14.666;2023-03-15T04:28:09;18.10;74.80
59015;DHT22;44799;53.382;14.666;2023-03-15T04:30:35;21.10;76.50
59015;DHT22;44799;53.382;14.666;2023-03-15T04:33:01;20.80;76.40
59015;DHT22;44799;53.382;14.666;2023-03-15T04:35:28;19.10;75.60
59015;DHT22;44799;53.382;14.666;2023-03-15T04:37:55;21.20;76.60
59015;DHT22;44799;53.382;14.666;2023-03-15T04:40:21;19.20;75.70
59015;DHT22;44799;53.382;14.666;2023-03-15T04:42:52;20.90;76.50
59015;DHT22;44799;53.382;14.666;2023-03-15T04:45:21;21.70;76.60
59015;DHT22;44799;53.382;14.666;2023-03-15T04:47:48;20.30;73.00
59015;DHT22;44799;53.382;14.666;2023-03-15T04:50:14;21.00;74.30
59015;DHT22;44799;53.382;14.666;2023-03-15T04:52:39;22.10;76.70
59015;DHT22;44799;53.382;14.666;2023-03-15T04:55:05;21.10;75.70
59015;DHT22;44799;53.382;14.666;2023-03-15T04:57:31;19.00;74.70
59015;DHT22;44799;53.382;14.666;2023-03-15T04:59:56;18.70;74.40
59015;DHT22;44799;53.382;14.666;2023-03-15T05:02:22;19.40;74.60
59015;DHT22;44799;53.382;14.666;2023-03-15T05:04:48;20.20;75.40
59015;DHT22;44799;53.382;14.666;2023-03-15T05:07:13;19.60;74.70
59015;DHT22;44799;53.382;14.666;2023-03-15T05:09:39;20.00;75.00
59015;DHT22;44799;53.382;14.666;2023-03-15T05:14:31;21.60;75.80
59015;DHT22;44799;53.382;14.666;2023-03-15T05:19:27;20.90;75.30
59015;DHT22;44799;53.382;14.666;2023-03-15T05:21:52;21.50;75.70
59015;DHT22;44799;53.382;14.666;2023-03-15T05:24:21;21.40;75.60
59015;DHT22;44799;53.382;14.666;2023-03-15T05:26:47;19.30;74.40
59015;DHT22;44799;53.382;14.666;2023-03-15T05:29:13;21.40;75.50
59015;DHT22;44799;53.382;14.666;2023-03-15T05:31:39;22.20;76.10
59015;DHT22;44799;53.382;14.666;2023-03-15T05:38:57;21.60;75.90
59015;DHT22;44799;53.382;14.666;2023-03-15T05:41:22;21.60;75.90
59015;DHT22;44799;53.382;14.666;2023-03-15T05:43:51;20.60;75.30
59015;DHT22;44799;53.382;14.666;2023-03-15T05:48:42;19.90;75.00
59015;DHT22;44799;53.382;14.666;2023-03-15T05:51:08;18.50;74.40
59015;DHT22;44799;53.382;14.666;2023-03-15T05:53:34;20.80;75.60
59015;DHT22;44799;53.382;14.666;2023-03-15T05:55:59;19.90;75.00
59015;DHT22;44799;53.382;14.666;2023-03-15T05:58:25;21.90;76.30
59015;DHT22;44799;53.382;14.666;2023-03-15T06:00:51;22.00;76.40
59015;DHT22;44799;53.382;14.666;2023-03-15T06:03:16;21.10;75.90
59015;DHT22;44799;53.382;14.666;2023-03-15T06:05:42;18.60;74.70
59015;DHT22;44799;53.382;14.666;2023-03-15T06:08:08;21.40;76.40
59015;DHT22;44799;53.382;14.666;2023-03-15T06:10:34;22.00;76.60
59015;DHT22;44799;53.382;14.666;2023-03-15T06:12:59;22.00;76.70
59015;DHT22;44799;53.382;14.666;2023-03-15T06:15:25;18.50;74.70
59015;DHT22;44799;53.382;14.666;2023-03-15T06:17:51;19.70;75.50
59015;DHT22;44799;53.382;14.666;2023-03-15T06:20:16;20.20;75.80
59015;DHT22;44799;53.382;14.666;2023-03-15T06:22:42;19.40;74.60
59015;DHT22;44799;53.382;14.666;2023-03-15T06:25:08;19.10;74.90
59015;DHT22;44799;53.382;14.666;2023-03-15T06:27:34;18.50;74.80
59015;DHT22;44799;53.382;14.666;2023-03-15T06:30:00;22.00;76.70
59015;DHT22;44799;53.382;14.666;2023-03-15T06:32:25;21.50;76.70
59015;DHT22;44799;53.382;14.666;2023-03-15T06:34:51;18.60;74.90
59015;DHT22;44799;53.382;14.666;2023-03-15T06:37:17;22.00;76.70
59015;DHT22;44799;53.382;14.666;2023-03-15T06:39:42;19.50;75.30
59015;DHT22;44799;53.382;14.666;2023-03-15T06:42:09;21.20;75.40
59015;DHT22;44799;53.382;14.666;2023-03-15T06:44:37;18.50;72.90
59015;DHT22;44799;53.382;14.666;2023-03-15T06:47:03;20.40;73.70
59015;DHT22;44799;53.382;14.666;2023-03-15T06:49:29;19.70;72.40
59015;DHT22;44799;53.382;14.666;2023-03-15T06:54:21;20.30;71.90
59015;DHT22;44799;53.382;14.666;2023-03-15T06:59:12;21.30;71.80
59015;DHT22;44799;53.382;14.666;2023-03-15T07:01:38;20.20;71.00
59015;DHT22;44799;53.382;14.666;2023-03-15T07:06:30;20.70;71.40
59015;DHT22;44799;53.382;14.666;2023-03-15T07:08:56;20.90;71.60
59015;DHT22;44799;53.382;14.666;2023-03-15T07:13:48;20.10;71.30
59015;DHT22;44799;53.382;14.666;2023-03-15T07:16:13;21.40;72.10
59015;DHT22;44799;53.382;14.666;2023-03-15T07:18:39;18.60;70.60
59015;DHT22;44799;53.382;14.666;2023-03-15T07:21:05;20.70;71.80
59015;DHT22;44799;53.382;14.666;2023-03-15T07:23:32;21.30;71.80
59015;DHT22;44799;53.382;14.666;2023-03-15T07:25:58;19.20;70.50
59015;DHT22;44799;53.382;14.666;2023-03-15T07:28:24;18.90;70.00
59015;DHT22;44799;53.382;14.666;2023-03-15T07:30:57;18.40;69.00
59015;DHT22;44799;53.382;14.666;2023-03-15T07:33:24;20.20;70.20
59015;DHT22;44799;53.382;14.666;2023-03-15T07:35:50;18.50;68.80
59015;DHT22;44799;53.382;14.666;2023-03-15T07:38:18;21.80;70.40
59015;DHT22;44799;53.382;14.666;2023-03-15T07:40:43;21.70;70.10
59015;DHT22;44799;53.382;14.666;2023-03-15T07:43:09;18.70;68.30
59015;DHT22;44799;53.382;14.666;2023-03-15T07:45:35;21.50;69.50
59015;DHT22;44799;53.382;14.666;2023-03-15T07:48:00;19.80;68.70
59015;DHT22;44799;53.382;14.666;2023-03-15T07:50:26;19.00;68.00
59015;DHT22;44799;53.382;14.666;2023-03-15T07:55:18;18.60;68.30
59015;DHT22;44799;53.382;14.666;2023-03-15T08:02:38;20.20;69.10
59015;DHT22;44799;53.382;14.666;2023-03-15T08:05:04;18.50;66.00
59015;DHT22;44799;53.382;14.666;2023-03-15T08:07:30;18.30;68.50
59015;DHT22;44799;53.382;14.666;2023-03-15T08:09:55;21.10;69.00
59015;DHT22;44799;53.382;14.666;2023-03-15T08:12:24;21.60;70.10
59015;DHT22;44799;53.382;14.666;2023-03-15T08:14:49;21.30;69.60
59015;DHT22;44799;53.382;14.666;2023-03-15T08:17:16;19.80;68.80
59015;DHT22;44799;53.382;14.666;2023-03-15T08:19:42;18.60;67.90
59015;DHT22;44799;53.382;14.666;2023-03-15T08:22:07;18.70;68.20
59015;DHT22;44799;53.382;14.666;2023-03-15T08:24:33;20.10;68.60
59015;DHT22;44799;53.382;14.666;2023-03-15T08:26:59;18.50;67.40
59015;DHT22;44799;53.382;14.666;2023-03-15T08:29:25;18.70;67.60
59015;DHT22;44799;53.382;14.666;2023-03-15T08:34:16;20.70;68.40
59015;DHT22;44799;53.382;14.666;2023-03-15T08:39:08;18.80;66.70
59015;DHT22;44799;53.382;14.666;2023-03-15T08:41:34;22.20;68.70
59015;DHT22;44799;53.382;14.666;2023-03-15T08:43:59;18.30;66.10
59015;DHT22;44799;53.382;14.666;2023-03-15T08:46:26;20.40;67.60
59015;DHT22;44799;53.382;14.666;2023-03-15T08:48:51;18.30;65.90
59015;DHT22;44799;53.382;14.666;2023-03-15T08:51:17;19.90;67.30
59015;DHT22;44799;53.382;14.666;2023-03-15T08:53:44;21.80;67.50
59015;DHT22;44799;53.382;14.666;2023-03-15T08:56:10;20.80;67.00
59015;DHT22;44799;53.382;14.666;2023-03-15T08:58:35;21.50;67.50
59015;DHT22;44799;53.382;14.666;2023-03-15T09:01:01;20.10;66.60
59015;DHT22;44799;53.382;14.666;2023-03-15T09:03:29;20.10;66.10
59015;DHT22;44799;53.382;14.666;2023-03-15T09:05:59;21.50;67.00
59015;DHT22;44799;53.382;14.666;2023-03-15T09:08:25;19.30;66.00
59015;DHT22;44799;53.382;14.666;2023-03-15T09:10:56;20.20;61.20
59015;DHT22;44799;53.382;14.666;2023-03-15T09:13:23;18.90;65.40
59015;DHT22;44799;53.382;14.666;2023-03-15T09:15:49;19.60;65.80
59015;DHT22;44799;53.382;14.666;2023-03-15T09:18:15;18.70;65.60
59015;DHT22;44799;53.382;14.666;2023-03-15T09:20:41;20.20;61.00
59015;DHT22;44799;53.382;14.666;2023-03-15T09:23:07;18.40;64.70
59015;DHT22;44799;53.382;14.666;2023-03-15T09:25:32;20.20;67.40
59015;DHT22;44799;53.382;14.666;2023-03-15T09:27:59;18.40;65.00
59015;DHT22;44799;53.382;14.666;2023-03-15T09:30:25;18.50;65.70
59015;DHT22;44799;53.382;14.666;2023-03-15T09:32:51;18.80;65.20
59015;DHT22;44799;53.382;14.666;2023-03-15T09:35:18;18.90;64.80
59015;DHT22;44799;53.382;14.666;2023-03-15T09:37:43;21.90;66.70
59015;DHT22;44799;53.382;14.666;2023-03-15T09:40:12;21.40;66.50
59015;DHT22;44799;53.382;14.666;2023-03-15T09:50:18;22.20;66.90
59015;DHT22;44799;53.382;14.666;2023-03-15T09:52:50;18.50;64.60
59015;DHT22;44799;53.382;14.666;2023-03-15T09:55:21;19.30;64.70
59015;DHT22;44799;53.382;14.666;2023-03-15T10:00:20;21.10;65.60
59015;DHT22;44799;53.382;14.666;2023-03-15T10:05:14;18.70;64.20
59015;DHT22;44799;53.382;14.666;2023-03-15T10:07:41;21.00;65.30
59015;DHT22;44799;53.382;14.666;2023-03-15T10:12:33;21.00;65.10
59015;DHT22;44799;53.382;14.666;2023-03-15T10:20:09;18.60;63.50
59015;DHT22;44799;53.382;14.666;2023-03-15T10:22:40;18.70;63.80
59015;DHT22;44799;53.382;14.666;2023-03-15T10:25:18;22.00;65.20
59015;DHT22;44799;53.382;14.666;2023-03-15T10:32:40;18.30;63.90
59015;DHT22;44799;53.382;14.666;2023-03-15T10:35:12;20.80;64.60
59015;DHT22;44799;53.382;14.666;2023-03-15T10:40:04;20.00;64.30
59015;DHT22;44799;53.382;14.666;2023-03-15T10:42:34;20.20;65.00
59015;DHT22;44799;53.382;14.666;2023-03-15T10:45:10;20.10;64.60
59015;DHT22;44799;53.382;14.666;2023-03-15T10:47:39;18.50;63.30
59015;DHT22;44799;53.382;14.666;2023-03-15T10:55:24;18.50;59.30
59015;DHT22;44799;53.382;14.666;2023-03-15T11:02:50;21.80;64.70
59015;DHT22;44799;53.382;14.666;2023-03-15T11:05:17;19.90;63.70
59015;DHT22;44799;53.382;14.666;2023-03-15T11:12:35;18.50;62.50
59015;DHT22;44799;53.382;14.666;2023-03-15T11:15:02;18.40;62.30
59015;DHT22;44799;53.382;14.666;2023-03-15T11:22:20;21.50;64.20
59015;DHT22;44799;53.382;14.666;2023-03-15T11:24:46;19.40;63.10
59015;DHT22;44799;53.382;14.666;2023-03-15T11:27:13;19.90;63.40
59015;DHT22;44799;53.382;14.666;2023-03-15T11:36:59;19.90;63.50
59015;DHT22;44799;53.382;14.666;2023-03-15T11:40:10;18.60;59.40
59015;DHT22;44799;53.382;14.666;2023-03-15T11:42:21;19.80;63.10
59015;DHT22;44799;53.382;14.666;2023-03-15T11:50:08;20.90;63.30
59015;DHT22;44799;53.382;14.666;2023-03-15T11:52:36;21.70;63.90
59015;DHT22;44799;53.382;14.666;2023-03-15T11:55:02;19.60;58.70
59015;DHT22;44799;53.382;14.666;2023-03-15T12:02:55;20.20;56.20
59015;DHT22;44799;53.382;14.666;2023-03-15T12:11:11;18.30;61.10
59015;DHT22;44799;53.382;14.666;2023-03-15T12:13:37;18.30;60.60
59015;DHT22;44799;53.382;14.666;2023-03-15T12:16:04;18.60;61.00
59015;DHT22;44799;53.382;14.666;2023-03-15T12:18:41;21.30;56.70
59015;DHT22;44799;53.382;14.666;2023-03-15T12:21:20;20.30;61.90
59015;DHT22;44799;53.382;14.666;2023-03-15T12:24:01;18.40;60.60
59015;DHT22;44799;53.382;14.666;2023-03-15T12:27:16;22.10;62.40
59015;DHT22;44799;53.382;14.666;2023-03-15T12:29:23;21.70;62.60
59015;DHT22;44799;53.382;14.666;2023-03-15T12:37:12;22.10;62.10
59015;DHT22;44799;53.382;14.666;2023-03-15T12:50:38;22.10;61.80
59015;DHT22;44799;53.382;14.666;2023-03-15T12:55:41;20.30;61.00
59015;DHT22;44799;53.382;14.666;2023-03-15T12:58:11;21.40;61.80
59015;DHT22;44799;53.382;14.666;2023-03-15T13:00:39;20.10;60.90
59015;DHT22;44799;53.382;14.666;2023-03-15T13:03:22;19.20;60.40
59015;DHT22;44799;53.382;14.666;2023-03-15T13:08:44;21.30;57.00
59015;DHT22;44799;53.382;14.666;2023-03-15T13:11:31;22.00;61.00
59015;DHT22;44799;53.382;14.666;2023-03-15T13:19:23;22.00;61.50
59015;DHT22;44799;53.382;14.666;2023-03-15T13:21:59;19.60;55.70
59015;DHT22;44799;53.382;14.666;2023-03-15T13:33:54;22.20;61.70
59015;DHT22;44799;53.382;14.666;2023-03-15T13:35:57;20.90;61.10
59015;DHT22;44799;53.382;14.666;2023-03-15T13:38:38;20.10;57.30
59015;DHT22;44799;53.382;14.666;2023-03-15T13:43:32;22.10;61.30
59015;DHT22;44799;53.382;14.666;2023-03-15T13:45:58;21.80;58.90
59015;DHT22;44799;53.382;14.666;2023-03-15T13:48:31;19.70;60.10
59015;DHT22;44799;53.382;14.666;2023-03-15T13:51:00;21.90;61.00
59015;DHT22;44799;53.382;14.666;2023-03-15T13:53:26;19.40;59.90
59015;DHT22;44799;53.382;14.666;2023-03-15T13:55:55;18.40;59.20
59015;DHT22;44799;53.382;14.666;2023-03-15T14:00:47;22.00;61.40
59015;DHT22;44799;53.382;14.666;2023-03-15T14:03:15;21.90;61.30
59015;DHT22;44799;53.382;14.666;2023-03-15T14:05:46;21.90;61.00
59015;DHT22;44799;53.382;14.666;2023-03-15T14:08:21;18.30;59.30
59015;DHT22;44799;53.382;14.666;2023-03-15T14:10:57;18.30;59.40
59015;DHT22;44799;53.382;14.666;2023-03-15T14:16:05;21.80;60.90
59015;DHT22;44799;53.382;14.666;2023-03-15T14:18:33;18.40;59.20
59015;DHT22;44799;53.382;14.666;2023-03-15T14:23:25;22.00;60.60
59015;DHT22;44799;53.382;14.666;2023-03-15T14:26:02;21.70;60.70
59015;DHT22;44799;53.382;14.666;2023-03-15T14:28:30;21.80;60.80
59015;DHT22;44799;53.382;14.666;2023-03-15T14:33:29;18.60;59.10
59015;DHT22;44799;53.382;14.666;2023-03-15T14:38:21;19.40;59.30
59015;DHT22;44799;53.382;14.666;2023-03-15T14:40:48;22.10;60.90
59015;DHT22;44799;53.382;14.666;2023-03-15T14:43:14;22.10;60.60
59015;DHT22;44799;53.382;14.666;2023-03-15T14:45:41;20.30;59.90
59015;DHT22;44799;53.382;14.666;2023-03-15T14:48:12;21.10;60.30
59015;DHT22;44799;53.382;14.666;2023-03-15T14:50:43;18.50;58.70
59015;DHT22;44799;53.382;14.666;2023-03-15T14:53:18;20.40;54.70
59015;DHT22;44799;53.382;14.666;2023-03-15T14:58:13;22.20;60.60
59015;DHT22;44799;53.382;14.666;2023-03-15T15:00:41;19.50;57.00
59015;DHT22;44799;53.382;14.666;2023-03-15T15:03:17;20.30;54.40
59015;DHT22;44799;53.382;14.666;2023-03-15T15:05:44;21.70;59.60
59015;DHT22;44799;53.382;14.666;2023-03-15T15:08:13;22.20;60.90
59015;DHT22;44799;53.382;14.666;2023-03-15T15:10:41;18.50;58.80
59015;DHT22;44799;53.382;14.666;2023-03-15T15:13:28;22.10;60.70
59015;DHT22;44799;53.382;14.666;2023-03-15T15:15:55;20.50;59.90
59015;DHT22;44799;53.382;14.666;2023-03-15T15:18:21;20.00;59.80
59015;DHT22;44799;53.382;14.666;2023-03-15T15:20:48;20.20;54.40
59015;DHT22;44799;53.382;14.666;2023-03-15T15:23:21;22.00;61.30
59015;DHT22;44799;53.382;14.666;2023-03-15T15:25:49;21.30;60.70
59015;DHT22;44799;53.382;14.666;2023-03-15T15:28:16;18.60;59.40
59015;DHT22;44799;53.382;14.666;2023-03-15T15:30:42;21.60;60.80
59015;DHT22;44799;53.382;14.666;2023-03-15T15:33:08;22.20;61.00
59015;DHT22;44799;53.382;14.666;2023-03-15T15:35:34;20.20;60.30
59015;DHT22;44799;53.382;14.666;2023-03-15T15:38:00;22.20;61.50
59015;DHT22;44799;53.382;14.666;2023-03-15T15:40:31;21.60;57.60
59015;DHT22;44799;53.382;14.666;2023-03-15T15:42:57;21.70;60.80
59015;DHT22;44799;53.382;14.666;2023-03-15T15:45:24;21.70;60.70
59015;DHT22;44799;53.382;14.666;2023-03-15T15:47:50;20.20;55.00
59015;DHT22;44799;53.382;14.666;2023-03-15T15:50:18;18.80;59.30
59015;DHT22;44799;53.382;14.666;2023-03-15T15:52:47;19.70;59.60
59015;DHT22;44799;53.382;14.666;2023-03-15T15:55:19;20.40;55.30
59015;DHT22;44799;53.382;14.666;2023-03-15T15:57:49;21.20;60.20
59015;DHT22;44799;53.382;14.666;2023-03-15T16:00:21;20.70;59.90
59015;DHT22;44799;53.382;14.666;2023-03-15T16:02:49;20.30;60.00
59015;DHT22;44799;53.382;14.666;2023-03-15T16:05:17;21.30;60.00
59015;DHT22;44799;53.382;14.666;2023-03-15T16:10:19;22.00;60.80
59015;DHT22;44799;53.382;14.666;2023-03-15T16:12:46;21.90;60.50
59015;DHT22;44799;53.382;14.666;2023-03-15T16:15:14;22.00;60.40
59015;DHT22;44799;53.382;14.666;2023-03-15T16:17:40;21.60;60.60
59015;DHT22;44799;53.382;14.666;2023-03-15T16:20:06;21.90;60.50
59015;DHT22;44799;53.382;14.666;2023-03-15T16:22:33;21.80;60.70
59015;DHT22;44799;53.382;14.666;2023-03-15T16:25:00;21.40;60.30
59015;DHT22;44799;53.382;14.666;2023-03-15T16:27:27;20.00;54.30
59015;DHT22;44799;53.382;14.666;2023-03-15T16:29:54;21.70;61.10
59015;DHT22;44799;53.382;14.666;2023-03-15T16:32:22;21.20;60.00
59015;DHT22;44799;53.382;14.666;2023-03-15T16:34:49;21.50;61.10
59015;DHT22;44799;53.382;14.666;2023-03-15T16:37:20;20.00;54.30
59015;DHT22;44799;53.382;14.666;2023-03-15T16:39:47;21.80;61.10
59015;DHT22;44799;53.382;14.666;2023-03-15T16:42:16;21.90;60.80
59015;DHT22;44799;53.382;14.666;2023-03-15T16:44:43;21.50;60.60
59015;DHT22;44799;53.382;14.666;2023-03-15T16:47:09;20.30;60.30
59015;DHT22;44799;53.382;14.666;2023-03-15T16:49:35;21.40;60.50
59015;DHT22;44799;53.382;14.666;2023-03-15T16:54:27;21.40;60.50
59015;DHT22;44799;53.382;14.666;2023-03-15T16:56:53;21.00;60.60
59015;DHT22;44799;53.382;14.666;2023-03-15T17:01:45;20.30;59.90
59015;DHT22;44799;53.382;14.666;2023-03-15T17:04:11;20.60;57.70
59015;DHT22;44799;53.382;14.666;2023-03-15T17:09:23;18.20;58.70
59015;DHT22;44799;53.382;14.666;2023-03-15T17:11:49;19.30;59.40
59015;DHT22;44799;53.382;14.666;2023-03-15T17:16:42;19.90;60.30
59015;DHT22;44799;53.382;14.666;2023-03-15T17:19:09;18.20;59.00
59015;DHT22;44799;53.382;14.666;2023-03-15T17:21:35;21.80;60.90
59015;DHT22;44799;53.382;14.666;2023-03-15T17:24:01;18.90;59.40
59015;DHT22;44799;53.382;14.666;2023-03-15T17:26:27;20.10;59.90
59015;DHT22;44799;53.382;14.666;2023-03-15T17:28:53;21.60;60.80
59015;DHT22;44799;53.382;14.666;2023-03-15T17:31:20;21.10;60.80
59015;DHT22;44799;53.382;14.666;2023-03-15T17:33:45;21.70;61.00
59015;DHT22;44799;53.382;14.666;2023-03-15T17:38:37;21.40;61.30
59015;DHT22;44799;53.382;14.666;2023-03-15T17:43:32;18.30;59.40
59015;DHT22;44799;53.382;14.666;2023-03-15T17:45:58;19.80;60.20
59015;DHT22;44799;53.382;14.666;2023-03-15T17:48:24;20.40;60.50
59015;DHT22;44799;53.382;14.666;2023-03-15T17:50:49;18.20;59.10
59015;DHT22;44799;53.382;14.666;2023-03-15T17:53:16;19.00;59.60
59015;DHT22;44799;53.382;14.666;2023-03-15T17:55:42;20.20;60.40
59015;DHT22;44799;53.382;14.666;2023-03-15T17:58:09;18.70;59.50
59015;DHT22;44799;53.382;14.666;2023-03-15T18:00:35;20.20;60.50
59015;DHT22;44799;53.382;14.666;2023-03-15T18:03:00;18.10;59.50
59015;DHT22;44799;53.382;14.666;2023-03-15T18:05:27;18.30;59.60
59015;DHT22;44799;53.382;14.666;2023-03-15T18:07:53;18.30;59.10
59015;DHT22;44799;53.382;14.666;2023-03-15T18:12:46;18.10;58.90
59015;DHT22;44799;53.382;14.666;2023-03-15T18:17:39;19.70;59.60
59015;DHT22;44799;53.382;14.666;2023-03-15T18:22:33;21.30;60.60
59015;DHT22;44799;53.382;14.666;2023-03-15T18:24:59;21.70;60.80
59015;DHT22;44799;53.382;14.666;2023-03-15T18:29:51;18.50;59.40
59015;DHT22;44799;53.382;14.666;2023-03-15T18:34:43;21.00;60.60
59015;DHT22;44799;53.382;14.666;2023-03-15T18:37:08;19.50;59.70
59015;DHT22;44799;53.382;14.666;2023-03-15T18:39:36;19.50;59.50
59015;DHT22;44799;53.382;14.666;2023-03-15T18:42:03;18.20;59.20
59015;DHT22;44799;53.382;14.666;2023-03-15T18:44:29;20.80;60.70
59015;DHT22;44799;53.382;14.666;2023-03-15T18:46:55;18.20;59.10
59015;DHT22;44799;53.382;14.666;2023-03-15T18:49:21;21.70;60.90
59015;DHT22;44799;53.382;14.666;2023-03-15T18:54:12;18.60;59.50
59015;DHT22;44799;53.382;14.666;2023-03-15T18:56:38;21.30;60.70
59015;DHT22;44799;53.382;14.666;2023-03-15T18:59:04;20.50;60.40